sim
Sign-in with your pilot id or email,
or register
Callsign
Passwort

Schedule Details

Flight Number: DLH1848
Departure: Munich Airport (EDDM) at 18:35
Arrival: Rome Leonardo da Vinci Fiumicino Airport (LIRF) at 20:05
Route: Lufthansa Passenger Schedule. Enter filed route here before submitting Pirep.

Weather Information
Getting current METAR information for EDDM 260120Z 25012KT 9999 -RA BKN014 07/06 Q1000 NOSIG
Getting current METAR information for LIRF 260120Z 27015KT 7000 -RA FEW020CB SCT050 17/10 Q0997 RETSRA NOSIG

Schedule Frequency

Route Map